sensor_id;sensor_type;location;lat;lon;timestamp;temperature;humidity
7388;DHT22;3735;50.136;11.062;2023-02-28T00:01:29;-3.20;99.90
7388;DHT22;3735;50.136;11.062;2023-02-28T00:03:55;-3.00;99.90
7388;DHT22;3735;50.136;11.062;2023-02-28T00:06:21;-2.90;99.90
7388;DHT22;3735;50.136;11.062;2023-02-28T00:08:47;-2.80;99.90
7388;DHT22;3735;50.136;11.062;2023-02-28T00:11:15;-2.70;99.90
7388;DHT22;3735;50.136;11.062;2023-02-28T00:13:44;-2.60;99.90
7388;DHT22;3735;50.136;11.062;2023-02-28T00:16:17;-2.60;99.90
7388;DHT22;3735;50.136;11.062;2023-02-28T00:18:44;-2.50;99.90
7388;DHT22;3735;50.136;11.062;2023-02-28T00:21:10;-2.60;99.90
7388;DHT22;3735;50.136;11.062;2023-02-28T00:23:36;-2.60;99.90
7388;DHT22;3735;50.136;11.062;2023-02-28T00:26:02;-2.60;99.90
7388;DHT22;3735;50.136;11.062;2023-02-28T00:28:28;-2.60;99.90
7388;DHT22;3735;50.136;11.062;2023-02-28T00:30:54;-2.60;99.90
7388;DHT22;3735;50.136;11.062;2023-02-28T00:33:20;-2.70;99.90
7388;DHT22;3735;50.136;11.062;2023-02-28T00:35:46;-2.70;99.90
7388;DHT22;3735;50.136;11.062;2023-02-28T00:38:14;-2.70;99.90
7388;DHT22;3735;50.136;11.062;2023-02-28T00:40:40;-2.80;99.90
7388;DHT22;3735;50.136;11.062;2023-02-28T00:43:06;-2.90;99.90
7388;DHT22;3735;50.136;11.062;2023-02-28T00:45:32;-3.10;99.90
7388;DHT22;3735;50.136;11.062;2023-02-28T00:47:58;-3.20;99.90
7388;DHT22;3735;50.136;11.062;2023-02-28T00:50:24;-3.30;99.90
7388;DHT22;3735;50.136;11.062;2023-02-28T00:52:50;-3.30;99.90
7388;DHT22;3735;50.136;11.062;2023-02-28T00:55:15;-3.40;99.90
7388;DHT22;3735;50.136;11.062;2023-02-28T00:57:41;-3.60;99.90
7388;DHT22;3735;50.136;11.062;2023-02-28T01:00:08;-3.60;99.90
7388;DHT22;3735;50.136;11.062;2023-02-28T01:02:34;-3.70;99.90
7388;DHT22;3735;50.136;11.062;2023-02-28T01:05:00;-3.80;99.90
7388;DHT22;3735;50.136;11.062;2023-02-28T01:07:26;-3.80;99.90
7388;DHT22;3735;50.136;11.062;2023-02-28T01:09:51;-3.90;99.90
7388;DHT22;3735;50.136;11.062;2023-02-28T01:12:17;-3.90;99.90
7388;DHT22;3735;50.136;11.062;2023-02-28T01:14:43;-3.90;99.90
7388;DHT22;3735;50.136;11.062;2023-02-28T01:17:09;-4.00;99.90
7388;DHT22;3735;50.136;11.062;2023-02-28T01:19:35;-4.10;99.90
7388;DHT22;3735;50.136;11.062;2023-02-28T01:22:03;-4.20;99.90
7388;DHT22;3735;50.136;11.062;2023-02-28T01:24:30;-4.20;99.90
7388;DHT22;3735;50.136;11.062;2023-02-28T01:26:56;-4.20;99.90
7388;DHT22;3735;50.136;11.062;2023-02-28T01:29:22;-4.20;99.90
7388;DHT22;3735;50.136;11.062;2023-02-28T01:31:47;-4.10;99.90
7388;DHT22;3735;50.136;11.062;2023-02-28T01:34:13;-4.10;99.90
7388;DHT22;3735;50.136;11.062;2023-02-28T01:36:39;-4.10;99.90
7388;DHT22;3735;50.136;11.062;2023-02-28T01:39:05;-4.20;99.90
7388;DHT22;3735;50.136;11.062;2023-02-28T01:41:32;-4.20;99.90
7388;DHT22;3735;50.136;11.062;2023-02-28T01:44:53;-4.30;99.90
7388;DHT22;3735;50.136;11.062;2023-02-28T01:47:11;-4.20;99.90
7388;DHT22;3735;50.136;11.062;2023-02-28T01:49:37;-4.20;99.90
7388;DHT22;3735;50.136;11.062;2023-02-28T01:52:03;-4.20;99.90
7388;DHT22;3735;50.136;11.062;2023-02-28T01:54:34;-4.20;99.90
7388;DHT22;3735;50.136;11.062;2023-02-28T01:57:07;-4.20;99.90
7388;DHT22;3735;50.136;11.062;2023-02-28T01:59:40;-4.30;99.90
7388;DHT22;3735;50.136;11.062;2023-02-28T02:02:15;-4.30;99.90
7388;DHT22;3735;50.136;11.062;2023-02-28T02:05:06;-4.40;99.90
7388;DHT22;3735;50.136;11.062;2023-02-28T02:07:43;-4.40;99.90
7388;DHT22;3735;50.136;11.062;2023-02-28T02:16:31;-4.10;99.90
7388;DHT22;3735;50.136;11.062;2023-02-28T02:25:50;-3.60;99.90
7388;DHT22;3735;50.136;11.062;2023-02-28T02:34:26;-3.40;99.90
7388;DHT22;3735;50.136;11.062;2023-02-28T02:40:18;-3.20;99.90
7388;DHT22;3735;50.136;11.062;2023-02-28T02:45:19;-3.30;99.90
7388;DHT22;3735;50.136;11.062;2023-02-28T02:47:51;-3.40;99.90
7388;DHT22;3735;50.136;11.062;2023-02-28T02:50:33;-3.40;99.90
7388;DHT22;3735;50.136;11.062;2023-02-28T02:53:07;-3.50;99.90
7388;DHT22;3735;50.136;11.062;2023-02-28T02:55:38;-3.60;99.90
7388;DHT22;3735;50.136;11.062;2023-02-28T02:58:13;-3.70;99.90
7388;DHT22;3735;50.136;11.062;2023-02-28T03:00:45;-3.80;99.90
7388;DHT22;3735;50.136;11.062;2023-02-28T03:03:15;-3.90;99.90
7388;DHT22;3735;50.136;11.062;2023-02-28T03:05:59;-3.90;99.90
7388;DHT22;3735;50.136;11.062;2023-02-28T03:08:26;-3.90;99.90
7388;DHT22;3735;50.136;11.062;2023-02-28T03:11:01;-3.90;99.90
7388;DHT22;3735;50.136;11.062;2023-02-28T03:17:06;-4.10;99.90
7388;DHT22;3735;50.136;11.062;2023-02-28T03:20:12;-4.20;99.90
7388;DHT22;3735;50.136;11.062;2023-02-28T03:23:00;-4.20;99.90
7388;DHT22;3735;50.136;11.062;2023-02-28T03:30:53;-4.40;99.90
7388;DHT22;3735;50.136;11.062;2023-02-28T03:33:28;-4.50;99.90
7388;DHT22;3735;50.136;11.062;2023-02-28T03:36:04;-4.50;99.90
7388;DHT22;3735;50.136;11.062;2023-02-28T03:41:21;-4.40;99.90
7388;DHT22;3735;50.136;11.062;2023-02-28T03:43:54;-4.40;99.90
7388;DHT22;3735;50.136;11.062;2023-02-28T03:46:25;-4.30;99.90
7388;DHT22;3735;50.136;11.062;2023-02-28T03:49:11;-4.40;99.90
7388;DHT22;3735;50.136;11.062;2023-02-28T03:51:45;-4.40;99.90
7388;DHT22;3735;50.136;11.062;2023-02-28T03:54:41;-4.40;99.90
7388;DHT22;3735;50.136;11.062;2023-02-28T03:57:20;-4.40;99.90
7388;DHT22;3735;50.136;11.062;2023-02-28T04:02:41;-4.30;99.90
7388;DHT22;3735;50.136;11.062;2023-02-28T04:05:08;-4.30;99.90
7388;DHT22;3735;50.136;11.062;2023-02-28T04:07:34;-4.40;99.90
7388;DHT22;3735;50.136;11.062;2023-02-28T04:10:00;-4.30;99.90
7388;DHT22;3735;50.136;11.062;2023-02-28T04:12:26;-4.30;99.90
7388;DHT22;3735;50.136;11.062;2023-02-28T04:14:52;-4.20;99.90
7388;DHT22;3735;50.136;11.062;2023-02-28T04:17:18;-4.20;99.90
7388;DHT22;3735;50.136;11.062;2023-02-28T04:19:44;-4.20;99.90
7388;DHT22;3735;50.136;11.062;2023-02-28T04:22:10;-4.10;99.90
7388;DHT22;3735;50.136;11.062;2023-02-28T04:24:36;-4.10;99.90
7388;DHT22;3735;50.136;11.062;2023-02-28T04:27:02;-4.10;99.90
7388;DHT22;3735;50.136;11.062;2023-02-28T04:29:30;-4.00;99.90
7388;DHT22;3735;50.136;11.062;2023-02-28T04:31:58;-4.00;99.90
7388;DHT22;3735;50.136;11.062;2023-02-28T04:34:26;-4.00;99.90
7388;DHT22;3735;50.136;11.062;2023-02-28T04:36:54;-4.00;99.90
7388;DHT22;3735;50.136;11.062;2023-02-28T04:39:22;-4.00;99.90
7388;DHT22;3735;50.136;11.062;2023-02-28T04:41:48;-4.00;99.90
7388;DHT22;3735;50.136;11.062;2023-02-28T04:44:15;-4.00;99.90
7388;DHT22;3735;50.136;11.062;2023-02-28T04:46:41;-4.00;99.90
7388;DHT22;3735;50.136;11.062;2023-02-28T04:49:10;-4.00;99.90
7388;DHT22;3735;50.136;11.062;2023-02-28T04:51:37;-3.90;99.90
7388;DHT22;3735;50.136;11.062;2023-02-28T04:54:03;-3.90;99.90
7388;DHT22;3735;50.136;11.062;2023-02-28T04:56:29;-3.90;99.90
7388;DHT22;3735;50.136;11.062;2023-02-28T04:58:55;-4.00;99.90
7388;DHT22;3735;50.136;11.062;2023-02-28T05:01:31;-4.00;99.90
7388;DHT22;3735;50.136;11.062;2023-02-28T05:04:00;-4.00;99.90
7388;DHT22;3735;50.136;11.062;2023-02-28T05:06:28;-4.00;99.90
7388;DHT22;3735;50.136;11.062;2023-02-28T05:08:57;-4.00;99.90
7388;DHT22;3735;50.136;11.062;2023-02-28T05:11:29;-3.80;99.90
7388;DHT22;3735;50.136;11.062;2023-02-28T05:14:04;-3.70;99.90
7388;DHT22;3735;50.136;11.062;2023-02-28T05:16:32;-3.60;99.90
7388;DHT22;3735;50.136;11.062;2023-02-28T05:18:58;-3.60;99.90
7388;DHT22;3735;50.136;11.062;2023-02-28T05:21:29;-3.60;99.90
7388;DHT22;3735;50.136;11.062;2023-02-28T05:24:00;-3.60;99.90
7388;DHT22;3735;50.136;11.062;2023-02-28T05:26:33;-3.60;99.90
7388;DHT22;3735;50.136;11.062;2023-02-28T05:29:00;-3.60;99.90
7388;DHT22;3735;50.136;11.062;2023-02-28T05:31:26;-3.60;99.90
7388;DHT22;3735;50.136;11.062;2023-02-28T05:33:51;-3.60;99.90
7388;DHT22;3735;50.136;11.062;2023-02-28T05:36:17;-3.60;99.90
7388;DHT22;3735;50.136;11.062;2023-02-28T05:38:46;-3.60;99.90
7388;DHT22;3735;50.136;11.062;2023-02-28T05:41:14;-3.50;99.90
7388;DHT22;3735;50.136;11.062;2023-02-28T05:43:40;-3.60;99.90
7388;DHT22;3735;50.136;11.062;2023-02-28T05:46:07;-3.50;99.90
7388;DHT22;3735;50.136;11.062;2023-02-28T05:48:35;-3.60;99.90
7388;DHT22;3735;50.136;11.062;2023-02-28T05:51:02;-3.60;99.90
7388;DHT22;3735;50.136;11.062;2023-02-28T05:53:29;-3.60;99.90
7388;DHT22;3735;50.136;11.062;2023-02-28T05:55:56;-3.50;99.90
7388;DHT22;3735;50.136;11.062;2023-02-28T05:58:23;-3.50;99.90
7388;DHT22;3735;50.136;11.062;2023-02-28T06:00:51;-3.50;99.90
7388;DHT22;3735;50.136;11.062;2023-02-28T06:03:17;-3.30;99.90
7388;DHT22;3735;50.136;11.062;2023-02-28T06:05:42;-3.30;99.90
7388;DHT22;3735;50.136;11.062;2023-02-28T06:08:08;-3.20;99.90
7388;DHT22;3735;50.136;11.062;2023-02-28T06:10:35;-3.20;99.90
7388;DHT22;3735;50.136;11.062;2023-02-28T06:13:01;-3.20;99.90
7388;DHT22;3735;50.136;11.062;2023-02-28T06:15:30;-3.10;99.90
7388;DHT22;3735;50.136;11.062;2023-02-28T06:17:57;-3.00;99.90
7388;DHT22;3735;50.136;11.062;2023-02-28T06:20:25;-3.00;99.90
7388;DHT22;3735;50.136;11.062;2023-02-28T06:22:55;-3.00;99.90
7388;DHT22;3735;50.136;11.062;2023-02-28T06:25:24;-2.90;99.90
7388;DHT22;3735;50.136;11.062;2023-02-28T06:27:51;-2.90;99.90
7388;DHT22;3735;50.136;11.062;2023-02-28T06:30:17;-2.90;99.90
7388;DHT22;3735;50.136;11.062;2023-02-28T06:32:43;-2.80;99.90
7388;DHT22;3735;50.136;11.062;2023-02-28T06:35:09;-2.80;99.90
7388;DHT22;3735;50.136;11.062;2023-02-28T06:37:35;-2.70;99.90
7388;DHT22;3735;50.136;11.062;2023-02-28T06:40:02;-2.70;99.90
7388;DHT22;3735;50.136;11.062;2023-02-28T06:42:28;-2.70;99.90
7388;DHT22;3735;50.136;11.062;2023-02-28T06:44:56;-2.70;99.90
7388;DHT22;3735;50.136;11.062;2023-02-28T06:47:22;-2.70;99.90
7388;DHT22;3735;50.136;11.062;2023-02-28T06:49:48;-2.60;99.90
7388;DHT22;3735;50.136;11.062;2023-02-28T06:52:15;-2.60;99.90
7388;DHT22;3735;50.136;11.062;2023-02-28T06:54:41;-2.60;99.90
7388;DHT22;3735;50.136;11.062;2023-02-28T06:57:07;-2.50;99.90
7388;DHT22;3735;50.136;11.062;2023-02-28T06:59:33;-2.50;99.90
7388;DHT22;3735;50.136;11.062;2023-02-28T07:02:00;-2.40;99.90
7388;DHT22;3735;50.136;11.062;2023-02-28T07:04:27;-2.40;99.90
7388;DHT22;3735;50.136;11.062;2023-02-28T07:06:55;-2.30;99.90
7388;DHT22;3735;50.136;11.062;2023-02-28T07:09:22;-2.20;99.90
7388;DHT22;3735;50.136;11.062;2023-02-28T07:11:48;-2.10;99.90
7388;DHT22;3735;50.136;11.062;2023-02-28T07:14:14;-2.00;99.90
7388;DHT22;3735;50.136;11.062;2023-02-28T07:16:40;-1.80;99.90
7388;DHT22;3735;50.136;11.062;2023-02-28T07:19:06;-1.40;99.90
7388;DHT22;3735;50.136;11.062;2023-02-28T07:21:31;-1.00;99.90
7388;DHT22;3735;50.136;11.062;2023-02-28T07:23:57;-0.80;99.90
7388;DHT22;3735;50.136;11.062;2023-02-28T07:26:23;-0.50;99.90
7388;DHT22;3735;50.136;11.062;2023-02-28T07:28:49;-0.30;99.90
7388;DHT22;3735;50.136;11.062;2023-02-28T07:31:15;-0.10;99.90
7388;DHT22;3735;50.136;11.062;2023-02-28T07:33:43;0.10;99.90
7388;DHT22;3735;50.136;11.062;2023-02-28T07:36:14;0.20;99.90
7388;DHT22;3735;50.136;11.062;2023-02-28T07:38:47;0.30;99.90
7388;DHT22;3735;50.136;11.062;2023-02-28T07:41:17;0.50;99.90
7388;DHT22;3735;50.136;11.062;2023-02-28T07:43:45;0.50;99.90
7388;DHT22;3735;50.136;11.062;2023-02-28T07:46:14;0.70;99.90
7388;DHT22;3735;50.136;11.062;2023-02-28T07:48:42;0.80;99.90
7388;DHT22;3735;50.136;11.062;2023-02-28T07:51:08;0.90;99.90
7388;DHT22;3735;50.136;11.062;2023-02-28T07:53:34;1.00;99.90
7388;DHT22;3735;50.136;11.062;2023-02-28T07:56:01;0.90;99.90
7388;DHT22;3735;50.136;11.062;2023-02-28T07:58:29;0.90;99.90
7388;DHT22;3735;50.136;11.062;2023-02-28T08:00:55;0.90;99.90
7388;DHT22;3735;50.136;11.062;2023-02-28T08:03:23;0.90;99.90
7388;DHT22;3735;50.136;11.062;2023-02-28T08:05:49;1.20;99.90
7388;DHT22;3735;50.136;11.062;2023-02-28T08:08:20;1.70;99.90
7388;DHT22;3735;50.136;11.062;2023-02-28T08:10:45;2.20;99.90
7388;DHT22;3735;50.136;11.062;2023-02-28T08:13:11;2.50;99.90
7388;DHT22;3735;50.136;11.062;2023-02-28T08:15:37;3.10;99.90
7388;DHT22;3735;50.136;11.062;2023-02-28T08:18:03;3.80;99.90
7388;DHT22;3735;50.136;11.062;2023-02-28T08:20:28;4.60;99.90
7388;DHT22;3735;50.136;11.062;2023-02-28T08:22:54;5.10;99.90
7388;DHT22;3735;50.136;11.062;2023-02-28T08:25:20;5.70;99.90
7388;DHT22;3735;50.136;11.062;2023-02-28T08:27:50;7.10;99.90
7388;DHT22;3735;50.136;11.062;2023-02-28T08:30:17;7.80;99.90
7388;DHT22;3735;50.136;11.062;2023-02-28T08:32:43;8.30;99.90
7388;DHT22;3735;50.136;11.062;2023-02-28T08:35:10;9.00;99.90
7388;DHT22;3735;50.136;11.062;2023-02-28T08:37:36;9.90;99.90
7388;DHT22;3735;50.136;11.062;2023-02-28T08:40:02;10.60;99.90
7388;DHT22;3735;50.136;11.062;2023-02-28T08:42:29;10.90;99.90
7388;DHT22;3735;50.136;11.062;2023-02-28T08:44:55;11.50;99.90
7388;DHT22;3735;50.136;11.062;2023-02-28T08:47:21;12.10;99.90
7388;DHT22;3735;50.136;11.062;2023-02-28T08:49:47;11.80;99.90
7388;DHT22;3735;50.136;11.062;2023-02-28T08:52:13;11.70;99.90
7388;DHT22;3735;50.136;11.062;2023-02-28T08:54:39;11.90;99.90
7388;DHT22;3735;50.136;11.062;2023-02-28T08:57:05;11.40;99.90
7388;DHT22;3735;50.136;11.062;2023-02-28T08:59:31;11.30;99.90
7388;DHT22;3735;50.136;11.062;2023-02-28T09:01:57;11.10;99.90
7388;DHT22;3735;50.136;11.062;2023-02-28T09:04:23;11.10;99.90
7388;DHT22;3735;50.136;11.062;2023-02-28T09:06:49;10.40;99.90
7388;DHT22;3735;50.136;11.062;2023-02-28T09:09:15;10.50;99.90
7388;DHT22;3735;50.136;11.062;2023-02-28T09:11:41;10.30;99.90
7388;DHT22;3735;50.136;11.062;2023-02-28T09:14:07;10.80;99.90
7388;DHT22;3735;50.136;11.062;2023-02-28T09:16:33;10.90;99.90
7388;DHT22;3735;50.136;11.062;2023-02-28T09:19:00;11.40;99.90
7388;DHT22;3735;50.136;11.062;2023-02-28T09:21:26;12.60;99.90
7388;DHT22;3735;50.136;11.062;2023-02-28T09:23:52;12.80;99.90
7388;DHT22;3735;50.136;11.062;2023-02-28T09:26:24;13.20;99.90
7388;DHT22;3735;50.136;11.062;2023-02-28T09:28:53;12.10;99.90
7388;DHT22;3735;50.136;11.062;2023-02-28T09:31:23;11.60;99.90
7388;DHT22;3735;50.136;11.062;2023-02-28T09:33:52;11.10;99.90
7388;DHT22;3735;50.136;11.062;2023-02-28T09:36:20;10.80;99.90
7388;DHT22;3735;50.136;11.062;2023-02-28T09:38:46;11.10;99.90
7388;DHT22;3735;50.136;11.062;2023-02-28T09:41:19;11.60;99.90
7388;DHT22;3735;50.136;11.062;2023-02-28T09:43:55;11.70;99.90
7388;DHT22;3735;50.136;11.062;2023-02-28T09:48:56;13.60;99.90
7388;DHT22;3735;50.136;11.062;2023-02-28T09:52:14;12.70;99.90
7388;DHT22;3735;50.136;11.062;2023-02-28T09:54:46;9.90;99.90
7388;DHT22;3735;50.136;11.062;2023-02-28T09:57:36;9.80;99.90
7388;DHT22;3735;50.136;11.062;2023-02-28T10:05:48;11.70;99.90
7388;DHT22;3735;50.136;11.062;2023-02-28T10:08:30;13.30;99.90
7388;DHT22;3735;50.136;11.062;2023-02-28T10:11:16;13.00;99.90
7388;DHT22;3735;50.136;11.062;2023-02-28T10:16:36;14.20;99.90
7388;DHT22;3735;50.136;11.062;2023-02-28T10:22:13;13.70;99.90
7388;DHT22;3735;50.136;11.062;2023-02-28T10:29:50;13.20;99.90
7388;DHT22;3735;50.136;11.062;2023-02-28T10:32:20;11.60;99.90
7388;DHT22;3735;50.136;11.062;2023-02-28T10:35:21;11.20;99.90
7388;DHT22;3735;50.136;11.062;2023-02-28T10:37:53;12.10;99.90
7388;DHT22;3735;50.136;11.062;2023-02-28T10:45:35;14.50;99.90
7388;DHT22;3735;50.136;11.062;2023-02-28T10:58:52;12.00;99.90
7388;DHT22;3735;50.136;11.062;2023-02-28T11:07:20;12.10;99.90
7388;DHT22;3735;50.136;11.062;2023-02-28T11:09:53;13.30;99.90
7388;DHT22;3735;50.136;11.062;2023-02-28T11:12:31;13.40;99.90
7388;DHT22;3735;50.136;11.062;2023-02-28T11:15:23;12.00;99.90
7388;DHT22;3735;50.136;11.062;2023-02-28T11:18:19;11.70;99.90
7388;DHT22;3735;50.136;11.062;2023-02-28T11:20:50;11.40;99.90
7388;DHT22;3735;50.136;11.062;2023-02-28T11:23:19;11.40;99.90
7388;DHT22;3735;50.136;11.062;2023-02-28T11:25:51;10.80;99.90
7388;DHT22;3735;50.136;11.062;2023-02-28T11:28:40;12.50;99.90
7388;DHT22;3735;50.136;11.062;2023-02-28T11:36:16;16.10;99.90
7388;DHT22;3735;50.136;11.062;2023-02-28T11:38:46;14.60;99.90
7388;DHT22;3735;50.136;11.062;2023-02-28T11:46:59;13.70;99.90
7388;DHT22;3735;50.136;11.062;2023-02-28T11:49:37;14.40;99.90
7388;DHT22;3735;50.136;11.062;2023-02-28T11:55:37;15.10;99.90
7388;DHT22;3735;50.136;11.062;2023-02-28T12:03:56;15.70;99.90
7388;DHT22;3735;50.136;11.062;2023-02-28T12:18:14;15.70;99.90
7388;DHT22;3735;50.136;11.062;2023-02-28T12:27:41;15.20;99.90
7388;DHT22;3735;50.136;11.062;2023-02-28T12:30:28;15.40;99.90
7388;DHT22;3735;50.136;11.062;2023-02-28T12:33:10;16.20;99.90
7388;DHT22;3735;50.136;11.062;2023-02-28T12:35:49;16.30;99.90
7388;DHT22;3735;50.136;11.062;2023-02-28T12:38:26;15.80;99.90
7388;DHT22;3735;50.136;11.062;2023-02-28T12:41:09;15.20;99.90
7388;DHT22;3735;50.136;11.062;2023-02-28T12:44:02;15.40;99.90
7388;DHT22;3735;50.136;11.062;2023-02-28T12:46:38;15.00;99.90
7388;DHT22;3735;50.136;11.062;2023-02-28T12:49:22;14.70;99.90
7388;DHT22;3735;50.136;11.062;2023-02-28T12:52:08;15.20;99.90
7388;DHT22;3735;50.136;11.062;2023-02-28T12:55:06;14.90;99.90
7388;DHT22;3735;50.136;11.062;2023-02-28T12:57:54;14.70;99.90
7388;DHT22;3735;50.136;11.062;2023-02-28T13:00:36;15.10;99.90
7388;DHT22;3735;50.136;11.062;2023-02-28T13:09:04;15.70;99.90
7388;DHT22;3735;50.136;11.062;2023-02-28T13:11:44;15.00;99.90
7388;DHT22;3735;50.136;11.062;2023-02-28T13:14:25;14.20;99.90
7388;DHT22;3735;50.136;11.062;2023-02-28T13:25:01;15.60;99.90
7388;DHT22;3735;50.136;11.062;2023-02-28T13:27:38;16.00;99.90
7388;DHT22;3735;50.136;11.062;2023-02-28T13:38:52;15.40;99.90
7388;DHT22;3735;50.136;11.062;2023-02-28T13:44:08;14.50;99.90
7388;DHT22;3735;50.136;11.062;2023-02-28T13:54:50;14.40;99.90
7388;DHT22;3735;50.136;11.062;2023-02-28T14:06:24;13.90;99.90
7388;DHT22;3735;50.136;11.062;2023-02-28T14:11:50;13.90;99.90
7388;DHT22;3735;50.136;11.062;2023-02-28T14:14:55;13.90;99.90
7388;DHT22;3735;50.136;11.062;2023-02-28T14:17:21;14.20;99.90
7388;DHT22;3735;50.136;11.062;2023-02-28T14:19:48;13.90;99.90
7388;DHT22;3735;50.136;11.062;2023-02-28T14:29:01;13.70;99.90
7388;DHT22;3735;50.136;11.062;2023-02-28T14:32:06;13.40;99.90
7388;DHT22;3735;50.136;11.062;2023-02-28T14:37:27;13.20;99.90
7388;DHT22;3735;50.136;11.062;2023-02-28T14:39:57;13.00;99.90
7388;DHT22;3735;50.136;11.062;2023-02-28T14:42:32;12.80;99.90
7388;DHT22;3735;50.136;11.062;2023-02-28T14:44:58;13.10;99.90
7388;DHT22;3735;50.136;11.062;2023-02-28T14:47:31;12.80;99.90
7388;DHT22;3735;50.136;11.062;2023-02-28T14:49:59;12.70;99.90
7388;DHT22;3735;50.136;11.062;2023-02-28T14:52:31;12.80;99.90
7388;DHT22;3735;50.136;11.062;2023-02-28T14:55:09;13.00;99.90
7388;DHT22;3735;50.136;11.062;2023-02-28T14:57:50;12.80;99.90
7388;DHT22;3735;50.136;11.062;2023-02-28T15:00:32;12.60;99.90
7388;DHT22;3735;50.136;11.062;2023-02-28T15:03:00;12.70;99.90
7388;DHT22;3735;50.136;11.062;2023-02-28T15:05:42;12.40;99.90
7388;DHT22;3735;50.136;11.062;2023-02-28T15:08:17;12.50;99.90
7388;DHT22;3735;50.136;11.062;2023-02-28T15:11:00;12.90;99.90
7388;DHT22;3735;50.136;11.062;2023-02-28T15:13:51;12.80;99.90
7388;DHT22;3735;50.136;11.062;2023-02-28T15:16:24;12.80;99.90
7388;DHT22;3735;50.136;11.062;2023-02-28T15:18:59;12.50;99.90
7388;DHT22;3735;50.136;11.062;2023-02-28T15:21:33;12.60;99.90
7388;DHT22;3735;50.136;11.062;2023-02-28T15:26:58;11.90;99.90
7388;DHT22;3735;50.136;11.062;2023-02-28T15:29:31;11.90;99.90
7388;DHT22;3735;50.136;11.062;2023-02-28T15:32:07;11.90;99.90
7388;DHT22;3735;50.136;11.062;2023-02-28T15:34:40;11.40;99.90
7388;DHT22;3735;50.136;11.062;2023-02-28T15:37:28;11.10;99.90
7388;DHT22;3735;50.136;11.062;2023-02-28T15:40:41;10.30;99.90
7388;DHT22;3735;50.136;11.062;2023-02-28T15:43:23;9.50;99.90
7388;DHT22;3735;50.136;11.062;2023-02-28T15:46:05;8.00;99.90
7388;DHT22;3735;50.136;11.062;2023-02-28T15:51:40;5.90;99.90
7388;DHT22;3735;50.136;11.062;2023-02-28T15:54:08;5.30;99.90
7388;DHT22;3735;50.136;11.062;2023-02-28T15:56:45;4.90;99.90
7388;DHT22;3735;50.136;11.062;2023-02-28T15:59:19;4.60;99.90
7388;DHT22;3735;50.136;11.062;2023-02-28T16:02:08;4.40;99.90
7388;DHT22;3735;50.136;11.062;2023-02-28T16:07:27;4.00;99.90
7388;DHT22;3735;50.136;11.062;2023-02-28T16:09:53;3.80;99.90
7388;DHT22;3735;50.136;11.062;2023-02-28T16:12:20;3.70;99.90
7388;DHT22;3735;50.136;11.062;2023-02-28T16:14:53;3.60;99.90
7388;DHT22;3735;50.136;11.062;2023-02-28T16:17:24;3.50;99.90
7388;DHT22;3735;50.136;11.062;2023-02-28T16:19:51;3.40;99.90
7388;DHT22;3735;50.136;11.062;2023-02-28T16:22:17;3.20;99.90
7388;DHT22;3735;50.136;11.062;2023-02-28T16:24:43;3.20;99.90
7388;DHT22;3735;50.136;11.062;2023-02-28T16:27:21;3.00;99.90
7388;DHT22;3735;50.136;11.062;2023-02-28T16:29:53;2.90;99.90
7388;DHT22;3735;50.136;11.062;2023-02-28T16:32:19;2.80;99.90
7388;DHT22;3735;50.136;11.062;2023-02-28T16:34:46;2.80;99.90
7388;DHT22;3735;50.136;11.062;2023-02-28T16:37:17;2.60;99.90
7388;DHT22;3735;50.136;11.062;2023-02-28T16:39:44;2.60;99.90
7388;DHT22;3735;50.136;11.062;2023-02-28T16:42:25;2.40;99.90
7388;DHT22;3735;50.136;11.062;2023-02-28T16:44:54;2.30;99.90
7388;DHT22;3735;50.136;11.062;2023-02-28T16:47:21;2.20;99.90
7388;DHT22;3735;50.136;11.062;2023-02-28T16:49:47;2.00;99.90
7388;DHT22;3735;50.136;11.062;2023-02-28T16:52:14;1.90;99.90
7388;DHT22;3735;50.136;11.062;2023-02-28T16:54:40;1.80;99.90
7388;DHT22;3735;50.136;11.062;2023-02-28T16:57:18;1.70;99.90
7388;DHT22;3735;50.136;11.062;2023-02-28T16:59:47;1.60;99.90
7388;DHT22;3735;50.136;11.062;2023-02-28T17:02:17;1.60;99.90
7388;DHT22;3735;50.136;11.062;2023-02-28T17:04:45;1.50;99.90
7388;DHT22;3735;50.136;11.062;2023-02-28T17:07:13;1.40;99.90
7388;DHT22;3735;50.136;11.062;2023-02-28T17:09:42;1.30;99.90
7388;DHT22;3735;50.136;11.062;2023-02-28T17:12:08;1.30;99.90
7388;DHT22;3735;50.136;11.062;2023-02-28T17:14:36;1.20;99.90
7388;DHT22;3735;50.136;11.062;2023-02-28T17:17:04;1.10;99.90
7388;DHT22;3735;50.136;11.062;2023-02-28T17:19:31;1.10;99.90
7388;DHT22;3735;50.136;11.062;2023-02-28T17:21:57;1.00;99.90
7388;DHT22;3735;50.136;11.062;2023-02-28T17:24:22;0.90;99.90
7388;DHT22;3735;50.136;11.062;2023-02-28T17:26:48;0.80;99.90
7388;DHT22;3735;50.136;11.062;2023-02-28T17:29:17;0.80;99.90
7388;DHT22;3735;50.136;11.062;2023-02-28T17:31:45;0.90;99.90
7388;DHT22;3735;50.136;11.062;2023-02-28T17:34:11;0.80;99.90
7388;DHT22;3735;50.136;11.062;2023-02-28T17:36:43;0.70;99.90
7388;DHT22;3735;50.136;11.062;2023-02-28T17:39:12;0.60;99.90
7388;DHT22;3735;50.136;11.062;2023-02-28T17:41:45;0.50;99.90
7388;DHT22;3735;50.136;11.062;2023-02-28T17:44:11;0.60;99.90
7388;DHT22;3735;50.136;11.062;2023-02-28T17:46:36;0.50;99.90
7388;DHT22;3735;50.136;11.062;2023-02-28T17:49:03;0.50;99.90
7388;DHT22;3735;50.136;11.062;2023-02-28T17:51:29;0.50;99.90
7388;DHT22;3735;50.136;11.062;2023-02-28T17:53:55;0.50;99.90
7388;DHT22;3735;50.136;11.062;2023-02-28T17:56:23;0.50;99.90
7388;DHT22;3735;50.136;11.062;2023-02-28T17:58:52;0.40;99.90
7388;DHT22;3735;50.136;11.062;2023-02-28T18:01:19;0.40;99.90
7388;DHT22;3735;50.136;11.062;2023-02-28T18:03:46;0.30;99.90
7388;DHT22;3735;50.136;11.062;2023-02-28T18:06:21;0.20;99.90
7388;DHT22;3735;50.136;11.062;2023-02-28T18:08:54;0.20;99.90
7388;DHT22;3735;50.136;11.062;2023-02-28T18:11:21;0.10;99.90
7388;DHT22;3735;50.136;11.062;2023-02-28T18:13:51;0.10;99.90
7388;DHT22;3735;50.136;11.062;2023-02-28T18:16:19;0.00;99.90
7388;DHT22;3735;50.136;11.062;2023-02-28T18:18:46;0.00;99.90
7388;DHT22;3735;50.136;11.062;2023-02-28T18:21:14;-0.10;99.90
7388;DHT22;3735;50.136;11.062;2023-02-28T18:23:42;-0.20;99.90
7388;DHT22;3735;50.136;11.062;2023-02-28T18:26:17;-0.20;99.90
7388;DHT22;3735;50.136;11.062;2023-02-28T18:28:43;-0.30;99.90
7388;DHT22;3735;50.136;11.062;2023-02-28T18:31:12;-0.40;99.90
7388;DHT22;3735;50.136;11.062;2023-02-28T18:33:41;-0.40;99.90
7388;DHT22;3735;50.136;11.062;2023-02-28T18:36:08;-0.50;99.90
7388;DHT22;3735;50.136;11.062;2023-02-28T18:38:34;-0.60;99.90
7388;DHT22;3735;50.136;11.062;2023-02-28T18:41:03;-0.70;99.90
7388;DHT22;3735;50.136;11.062;2023-02-28T18:43:31;-0.70;99.90
7388;DHT22;3735;50.136;11.062;2023-02-28T18:46:11;-0.70;99.90
7388;DHT22;3735;50.136;11.062;2023-02-28T18:48:39;-0.80;99.90
7388;DHT22;3735;50.136;11.062;2023-02-28T18:51:10;-0.90;99.90
7388;DHT22;3735;50.136;11.062;2023-02-28T18:53:37;-0.80;99.90
7388;DHT22;3735;50.136;11.062;2023-02-28T18:56:05;-0.80;99.90
7388;DHT22;3735;50.136;11.062;2023-02-28T18:58:33;-0.90;99.90
7388;DHT22;3735;50.136;11.062;2023-02-28T19:01:03;-0.90;99.90
7388;DHT22;3735;50.136;11.062;2023-02-28T19:03:37;-0.90;99.90
7388;DHT22;3735;50.136;11.062;2023-02-28T19:06:03;-0.90;99.90
7388;DHT22;3735;50.136;11.062;2023-02-28T19:08:29;-0.90;99.90
7388;DHT22;3735;50.136;11.062;2023-02-28T19:10:54;-0.90;99.90
7388;DHT22;3735;50.136;11.062;2023-02-28T19:13:20;-0.90;99.90
7388;DHT22;3735;50.136;11.062;2023-02-28T19:15:47;-0.90;99.90